Time;durP1;ratioP1;P1;durP2;ratioP2;P2;SDS_P1;SDS_P2;PMS_P1;PMS_P2;Temp;Humidity;BMP_temperature;BMP_pressure;BME280_temperature;BME280_humidity;BME280_pressure;Samples;Min_cycle;Max_cycle;Signal;HPM_P1;HPM_P2
2021/11/23 00:02:05;;;;;;;41.63;31.02;;;;;;;;;;5084432;28;20302;-50
2021/11/23 00:04:31;;;;;;;44.33;31.40;;;;;;;;;;5085168;28;20047;-45
2021/11/23 00:06:56;;;;;;;19.60;13.13;;;;;;;;;;5088941;28;20481;-50
2021/11/23 00:09:22;;;;;;;14.27;10.00;;;;;;;;;;5087339;28;20117;-46
2021/11/23 00:11:47;;;;;;;19.08;9.70;;;;;;;;;;5083765;28;20036;-46
2021/11/23 00:14:13;;;;;;;18.05;10.95;;;;;;;;;;5085731;28;20113;-52
2021/11/23 00:16:38;;;;;;;16.02;8.30;;;;;;;;;;5089202;28;20089;-47
2021/11/23 00:19:03;;;;;;;13.88;10.02;;;;;;;;;;5088323;28;20054;-47
2021/11/23 00:21:28;;;;;;;21.63;11.85;;;;;;;;;;5088516;28;20089;-49
2021/11/23 00:23:54;;;;;;;27.98;13.93;;;;;;;;;;5089147;28;20040;-46
2021/11/23 00:26:19;;;;;;;16.63;7.82;;;;;;;;;;5088831;28;20097;-47
2021/11/23 00:28:45;;;;;;;30.90;17.60;;;;;;;;;;5089298;28;20130;-46
2021/11/23 00:31:11;;;;;;;46.22;26.88;;;;;;;;;;5087186;28;20407;-49
2021/11/23 00:33:42;;;;;;;43.50;25.08;;;;;;;;;;5087497;28;20345;-49
2021/11/23 00:36:07;;;;;;;34.63;19.48;;;;;;;;;;5083869;28;20048;-50
2021/11/23 00:38:34;;;;;;;33.03;23.00;;;;;;;;;;5088498;28;20087;-47
2021/11/23 00:40:59;;;;;;;16.63;13.38;;;;;;;;;;5088452;28;20044;-49
2021/11/23 00:43:24;;;;;;;15.40;10.00;;;;;;;;;;5085071;28;20124;-49
2021/11/23 00:45:50;;;;;;;13.52;8.05;;;;;;;;;;5085375;28;20094;-49
2021/11/23 00:48:15;;;;;;;10.15;6.70;;;;;;;;;;5088570;28;20127;-46
2021/11/23 00:50:40;;;;;;;14.65;10.02;;;;;;;;;;5083902;28;20048;-45
2021/11/23 00:53:06;;;;;;;22.50;12.45;;;;;;;;;;5085608;28;20200;-49
2021/11/23 00:55:32;;;;;;;12.52;8.90;;;;;;;;;;5087286;28;20041;-44
2021/11/23 00:57:57;;;;;;;18.85;8.40;;;;;;;;;;5087329;28;20044;-50
2021/11/23 01:00:22;;;;;;;40.55;13.50;;;;;;;;;;5084740;28;20750;-45
2021/11/23 01:02:48;;;;;;;29.25;13.35;;;;;;;;;;5082148;28;20056;-46
2021/11/23 01:05:13;;;;;;;46.53;21.33;;;;;;;;;;5077960;28;20085;-50
2021/11/23 01:07:39;;;;;;;16.60;10.65;;;;;;;;;;5088351;28;20700;-49
2021/11/23 01:10:05;;;;;;;19.95;9.05;;;;;;;;;;5086894;28;20085;-49
2021/11/23 01:12:30;;;;;;;19.55;12.57;;;;;;;;;;5084011;28;20055;-43
2021/11/23 01:14:56;;;;;;;21.33;13.40;;;;;;;;;;5083066;28;20092;-44
2021/11/23 01:17:21;;;;;;;20.02;8.98;;;;;;;;;;5086363;28;20032;-45
2021/11/23 01:19:47;;;;;;;10.13;6.82;;;;;;;;;;5086112;28;20051;-45
2021/11/23 01:22:12;;;;;;;9.93;6.75;;;;;;;;;;5085008;28;20079;-47
2021/11/23 01:24:38;;;;;;;8.30;6.65;;;;;;;;;;5086744;28;20387;-46
2021/11/23 01:27:03;;;;;;;6.32;5.50;;;;;;;;;;5081199;28;20079;-50
2021/11/23 01:29:29;;;;;;;8.13;6.47;;;;;;;;;;5085385;28;20044;-47
2021/11/23 01:31:54;;;;;;;8.13;6.05;;;;;;;;;;5083944;28;20040;-48
2021/11/23 01:34:20;;;;;;;5.30;4.80;;;;;;;;;;5086499;28;20123;-46
2021/11/23 01:36:46;;;;;;;7.10;6.40;;;;;;;;;;5087320;28;20528;-47
2021/11/23 01:39:11;;;;;;;8.82;5.80;;;;;;;;;;5085348;28;20622;-46
2021/11/23 01:41:36;;;;;;;10.65;6.75;;;;;;;;;;5086485;28;20056;-49
2021/11/23 01:44:02;;;;;;;16.63;8.70;;;;;;;;;;5087356;28;20050;-47
2021/11/23 01:46:27;;;;;;;30.85;13.80;;;;;;;;;;5087168;28;20062;-47
2021/11/23 01:48:53;;;;;;;30.65;14.70;;;;;;;;;;5085989;28;20485;-49
2021/11/23 01:51:18;;;;;;;22.70;10.93;;;;;;;;;;5079423;28;20059;-47
2021/11/23 01:53:44;;;;;;;36.55;11.80;;;;;;;;;;5085653;28;20040;-52
2021/11/23 01:56:09;;;;;;;17.48;7.43;;;;;;;;;;5086555;28;20119;-49
2021/11/23 01:58:35;;;;;;;15.85;7.50;;;;;;;;;;5085281;28;20502;-47
2021/11/23 02:01:00;;;;;;;7.80;6.50;;;;;;;;;;5085974;28;20040;-45
2021/11/23 02:03:25;;;;;;;14.68;8.00;;;;;;;;;;5086526;28;20105;-48
2021/11/23 02:05:51;;;;;;;15.23;8.55;;;;;;;;;;5086792;28;20097;-49
2021/11/23 02:08:16;;;;;;;24.08;11.32;;;;;;;;;;5086588;28;20407;-48
2021/11/23 02:10:42;;;;;;;10.20;7.90;;;;;;;;;;5085699;28;20049;-47
2021/11/23 02:13:07;;;;;;;10.63;6.97;;;;;;;;;;5088252;28;20504;-50
2021/11/23 02:15:33;;;;;;;11.90;7.32;;;;;;;;;;5087166;28;20036;-45
2021/11/23 02:17:58;;;;;;;100.35;59.95;;;;;;;;;;5086902;28;21125;-45
2021/11/23 02:20:24;;;;;;;39.03;31.67;;;;;;;;;;5086566;28;20487;-45
2021/11/23 02:22:50;;;;;;;68.20;42.45;;;;;;;;;;5086214;28;20114;-43
2021/11/23 02:25:16;;;;;;;92.20;67.68;;;;;;;;;;5086446;28;20094;-46
2021/11/23 02:27:42;;;;;;;72.20;55.60;;;;;;;;;;5085480;28;20116;-45
2021/11/23 02:30:08;;;;;;;70.60;47.80;;;;;;;;;;5085773;28;20051;-48
2021/11/23 02:32:52;;;;;;;60.58;49.90;;;;;;;;;;5083699;28;20105;-47
2021/11/23 02:35:18;;;;;;;45.70;37.85;;;;;;;;;;5083194;28;20131;-46
2021/11/23 02:37:47;;;;;;;28.85;23.50;;;;;;;;;;5086054;28;20066;-47
2021/11/23 02:40:13;;;;;;;25.33;18.38;;;;;;;;;;5085721;28;20092;-48
2021/11/23 02:42:38;;;;;;;29.98;16.63;;;;;;;;;;5086210;28;20105;-48
2021/11/23 02:45:04;;;;;;;20.92;16.92;;;;;;;;;;5085709;28;20530;-42
2021/11/23 02:47:36;;;;;;;28.60;20.40;;;;;;;;;;5085953;28;20048;-48
2021/11/23 02:50:03;;;;;;;14.27;9.25;;;;;;;;;;5082153;28;20056;-44
2021/11/23 02:52:28;;;;;;;17.88;14.02;;;;;;;;;;5083494;28;20051;-49
2021/11/23 02:54:54;;;;;;;20.73;12.77;;;;;;;;;;5086165;28;20047;-47
2021/11/23 02:57:24;;;;;;;16.27;10.35;;;;;;;;;;5085521;28;20098;-47
2021/11/23 02:59:49;;;;;;;9.07;6.63;;;;;;;;;;5084431;28;21029;-49
2021/11/23 03:02:15;;;;;;;13.10;11.63;;;;;;;;;;5086210;28;20043;-47
2021/11/23 03:04:40;;;;;;;20.60;7.63;;;;;;;;;;5085341;28;20051;-44
2021/11/23 03:07:11;;;;;;;8.95;7.65;;;;;;;;;;5083281;28;20498;-46
2021/11/23 03:09:36;;;;;;;8.93;5.10;;;;;;;;;;5084349;28;20047;-51
2021/11/23 03:12:01;;;;;;;9.40;5.90;;;;;;;;;;5079637;28;20777;-46
2021/11/23 03:14:27;;;;;;;11.25;6.85;;;;;;;;;;5085389;28;20867;-46
2021/11/23 03:16:52;;;;;;;8.88;6.53;;;;;;;;;;5079600;28;20045;-46
2021/11/23 03:19:17;;;;;;;8.10;4.78;;;;;;;;;;5085465;28;20067;-48
2021/11/23 03:21:43;;;;;;;6.05;5.47;;;;;;;;;;5084863;28;20520;-47
2021/11/23 03:24:08;;;;;;;9.20;5.97;;;;;;;;;;5085645;28;20044;-46
2021/11/23 03:26:33;;;;;;;9.77;6.40;;;;;;;;;;5081694;28;20045;-48
2021/11/23 03:28:59;;;;;;;9.40;6.88;;;;;;;;;;5083843;28;20532;-47
2021/11/23 03:31:24;;;;;;;9.45;6.28;;;;;;;;;;5081540;28;20570;-47
2021/11/23 03:33:50;;;;;;;5.68;4.93;;;;;;;;;;5085029;28;20510;-49
2021/11/23 03:36:15;;;;;;;8.68;5.40;;;;;;;;;;5084017;28;20559;-47
2021/11/23 03:38:41;;;;;;;13.02;5.47;;;;;;;;;;5084695;28;20028;-47
2021/11/23 03:41:06;;;;;;;9.60;5.28;;;;;;;;;;5086074;28;20063;-50
2021/11/23 03:43:31;;;;;;;6.35;4.93;;;;;;;;;;5085385;28;20498;-49
2021/11/23 03:45:57;;;;;;;8.38;5.20;;;;;;;;;;5085851;28;20055;-49
2021/11/23 03:48:22;;;;;;;11.52;4.95;;;;;;;;;;5084339;28;20039;-50
2021/11/23 03:50:47;;;;;;;7.85;4.55;;;;;;;;;;5081769;28;20123;-49
2021/11/23 03:53:13;;;;;;;10.13;4.90;;;;;;;;;;5085188;28;20044;-46
2021/11/23 03:55:39;;;;;;;10.55;9.02;;;;;;;;;;5084784;28;20047;-48
2021/11/23 03:58:05;;;;;;;21.27;11.13;;;;;;;;;;5083330;28;20052;-49
2021/11/23 04:00:30;;;;;;;15.23;8.38;;;;;;;;;;5084328;28;20058;-48
2021/11/23 04:02:56;;;;;;;9.68;4.88;;;;;;;;;;5084278;28;20040;-47
2021/11/23 04:05:22;;;;;;;11.52;6.38;;;;;;;;;;5084245;28;20470;-51
2021/11/23 04:07:47;;;;;;;16.58;7.72;;;;;;;;;;5082779;28;20044;-47
2021/11/23 04:10:14;;;;;;;8.68;4.93;;;;;;;;;;5083242;28;20212;-48
2021/11/23 04:12:39;;;;;;;6.55;4.85;;;;;;;;;;5083330;28;20148;-49
2021/11/23 04:15:05;;;;;;;15.95;4.40;;;;;;;;;;5082816;28;20506;-51
2021/11/23 04:17:31;;;;;;;9.38;5.75;;;;;;;;;;5082967;28;20051;-44
2021/11/23 04:19:56;;;;;;;20.65;7.15;;;;;;;;;;5085024;28;20458;-51
2021/11/23 04:22:22;;;;;;;12.35;4.57;;;;;;;;;;5085305;28;20127;-49
2021/11/23 04:24:47;;;;;;;13.05;4.13;;;;;;;;;;5083874;28;20139;-48
2021/11/23 04:27:12;;;;;;;12.68;6.55;;;;;;;;;;5076890;28;20498;-50
2021/11/23 04:29:38;;;;;;;5.40;3.17;;;;;;;;;;5083765;28;20939;-46
2021/11/23 04:32:03;;;;;;;6.75;2.75;;;;;;;;;;5080701;28;20063;-46
2021/11/23 04:34:28;;;;;;;5.82;2.42;;;;;;;;;;5082764;28;20051;-48
2021/11/23 04:36:54;;;;;;;6.82;4.85;;;;;;;;;;5084898;28;20044;-50
2021/11/23 04:39:19;;;;;;;7.07;4.90;;;;;;;;;;5083975;28;20032;-51
2021/11/23 04:41:45;;;;;;;6.60;2.85;;;;;;;;;;5084902;28;20063;-48
2021/11/23 04:44:10;;;;;;;15.25;3.55;;;;;;;;;;5082186;28;20364;-47
2021/11/23 04:46:35;;;;;;;21.00;8.93;;;;;;;;;;5078124;28;20036;-49
2021/11/23 04:49:01;;;;;;;9.02;5.60;;;;;;;;;;5085487;28;20410;-49
2021/11/23 04:51:27;;;;;;;5.97;2.67;;;;;;;;;;5088103;28;20636;-49
2021/11/23 04:53:53;;;;;;;13.88;7.25;;;;;;;;;;5088319;28;20501;-49
2021/11/23 04:56:18;;;;;;;11.68;4.78;;;;;;;;;;5088583;28;20139;-50
2021/11/23 04:58:44;;;;;;;10.80;4.75;;;;;;;;;;5087825;28;20101;-48
2021/11/23 05:01:09;;;;;;;8.65;2.35;;;;;;;;;;5087695;28;20534;-47
2021/11/23 05:03:35;;;;;;;4.00;2.63;;;;;;;;;;5088590;28;20036;-50
2021/11/23 05:06:00;;;;;;;14.80;5.30;;;;;;;;;;5088703;28;20556;-47
2021/11/23 05:08:25;;;;;;;7.60;2.83;;;;;;;;;;5087408;28;20120;-48
2021/11/23 05:10:51;;;;;;;4.40;3.92;;;;;;;;;;5084588;28;20067;-48
2021/11/23 05:13:16;;;;;;;3.38;1.75;;;;;;;;;;5085617;28;20146;-51
2021/11/23 05:15:41;;;;;;;1.58;1.15;;;;;;;;;;5085843;28;20101;-48
2021/11/23 05:18:06;;;;;;;1.98;1.15;;;;;;;;;;5084400;28;20050;-48
2021/11/23 05:20:32;;;;;;;3.10;1.52;;;;;;;;;;5085879;28;20404;-48
2021/11/23 05:22:57;;;;;;;1.13;0.73;;;;;;;;;;5087227;28;20064;-47
2021/11/23 05:25:22;;;;;;;2.83;1.25;;;;;;;;;;5086099;28;20047;-52
2021/11/23 05:27:48;;;;;;;2.65;1.42;;;;;;;;;;5086296;28;20158;-51
2021/11/23 05:30:13;;;;;;;1.42;1.13;;;;;;;;;;5086070;28;20052;-45
2021/11/23 05:32:39;;;;;;;2.03;1.55;;;;;;;;;;5082965;28;20044;-47
2021/11/23 05:35:05;;;;;;;1.80;1.05;;;;;;;;;;5087353;28;20591;-49
2021/11/23 05:37:30;;;;;;;3.53;1.83;;;;;;;;;;5085854;28;20044;-44
2021/11/23 05:39:56;;;;;;;6.13;1.80;;;;;;;;;;5085922;28;20054;-47
2021/11/23 05:42:21;;;;;;;4.63;1.80;;;;;;;;;;5087768;28;20072;-51
2021/11/23 05:44:46;;;;;;;5.43;2.28;;;;;;;;;;5086590;28;20215;-48
2021/11/23 05:47:12;;;;;;;2.67;1.50;;;;;;;;;;5087387;28;20070;-47
2021/11/23 05:49:37;;;;;;;3.92;1.50;;;;;;;;;;5082378;28;20495;-48
2021/11/23 05:52:03;;;;;;;4.00;2.58;;;;;;;;;;5084964;28;20159;-50
2021/11/23 05:54:28;;;;;;;5.57;1.95;;;;;;;;;;5086858;28;20047;-48
2021/11/23 05:56:53;;;;;;;3.17;1.73;;;;;;;;;;5086765;28;20040;-49
2021/11/23 05:59:19;;;;;;;2.10;1.77;;;;;;;;;;5087114;28;20044;-49
2021/11/23 06:01:44;;;;;;;7.68;2.72;;;;;;;;;;5083922;28;20044;-49
2021/11/23 06:04:10;;;;;;;5.53;1.88;;;;;;;;;;5086926;28;20097;-47
2021/11/23 06:06:35;;;;;;;4.30;1.83;;;;;;;;;;5086649;28;20126;-46
2021/11/23 06:09:00;;;;;;;1.73;0.70;;;;;;;;;;5086563;28;20044;-47
2021/11/23 06:11:26;;;;;;;3.00;1.27;;;;;;;;;;5087190;28;20051;-46
2021/11/23 06:13:52;;;;;;;2.20;1.42;;;;;;;;;;5086624;28;20079;-48
2021/11/23 06:16:18;;;;;;;3.50;1.58;;;;;;;;;;5086453;28;20132;-49
2021/11/23 06:18:43;;;;;;;3.72;2.13;;;;;;;;;;5086978;28;20789;-48
2021/11/23 06:21:08;;;;;;;3.92;1.85;;;;;;;;;;5086268;28;20580;-50
2021/11/23 06:23:34;;;;;;;6.53;1.77;;;;;;;;;;5082798;28;20040;-49
2021/11/23 06:26:00;;;;;;;4.53;2.60;;;;;;;;;;5086325;28;20097;-50
2021/11/23 06:28:25;;;;;;;5.80;3.80;;;;;;;;;;5087023;28;20047;-47
2021/11/23 06:30:51;;;;;;;9.55;3.22;;;;;;;;;;5087461;28;20044;-49
2021/11/23 06:33:17;;;;;;;6.40;3.33;;;;;;;;;;5085930;28;20047;-48
2021/11/23 06:35:43;;;;;;;2.47;1.45;;;;;;;;;;5086730;28;20048;-45
2021/11/23 06:38:09;;;;;;;2.95;1.38;;;;;;;;;;5086927;28;20615;-50
2021/11/23 06:40:37;;;;;;;4.75;2.38;;;;;;;;;;5084528;28;20045;-50
2021/11/23 06:43:02;;;;;;;3.08;1.63;;;;;;;;;;5079592;28;20046;-49
2021/11/23 06:45:28;;;;;;;6.97;1.90;;;;;;;;;;5085985;28;20600;-48
2021/11/23 06:47:54;;;;;;;2.13;1.40;;;;;;;;;;5087159;28;20134;-44
2021/11/23 06:50:20;;;;;;;5.60;2.85;;;;;;;;;;5085416;28;20044;-48
2021/11/23 06:52:45;;;;;;;3.65;1.77;;;;;;;;;;5085655;28;20044;-49
2021/11/23 06:55:10;;;;;;;4.43;2.20;;;;;;;;;;5085644;28;20043;-50
2021/11/23 06:57:36;;;;;;;2.67;1.27;;;;;;;;;;5084861;28;20039;-47
2021/11/23 07:00:04;;;;;;;3.58;2.05;;;;;;;;;;5084713;28;20641;-49
2021/11/23 07:02:29;;;;;;;4.88;2.28;;;;;;;;;;5085787;28;20144;-47
2021/11/23 07:04:54;;;;;;;2.20;1.73;;;;;;;;;;5084851;28;20078;-47
2021/11/23 07:07:20;;;;;;;2.25;1.40;;;;;;;;;;5084745;28;20047;-48
2021/11/23 07:09:45;;;;;;;3.60;1.95;;;;;;;;;;5083620;28;20044;-50
2021/11/23 07:12:11;;;;;;;12.40;9.07;;;;;;;;;;5085628;28;20040;-46
2021/11/23 07:14:37;;;;;;;12.55;8.10;;;;;;;;;;5083460;28;20089;-51
2021/11/23 07:17:02;;;;;;;5.78;2.53;;;;;;;;;;5081652;28;20040;-51
2021/11/23 07:19:27;;;;;;;11.63;2.88;;;;;;;;;;5081506;28;20024;-49
2021/11/23 07:21:53;;;;;;;5.15;2.25;;;;;;;;;;5081916;28;20048;-49
2021/11/23 07:24:18;;;;;;;1.77;1.50;;;;;;;;;;5077217;28;20622;-49
2021/11/23 07:26:44;;;;;;;7.43;1.65;;;;;;;;;;5084861;28;20089;-47
2021/11/23 07:29:09;;;;;;;7.10;3.30;;;;;;;;;;5085728;28;20101;-50
2021/11/23 07:31:35;;;;;;;1.77;1.10;;;;;;;;;;5086280;28;20036;-50
2021/11/23 07:34:01;;;;;;;1.75;0.85;;;;;;;;;;5086008;28;20499;-48
2021/11/23 07:36:26;;;;;;;5.70;2.53;;;;;;;;;;5085673;28;20048;-49
2021/11/23 07:38:53;;;;;;;4.53;1.70;;;;;;;;;;5085937;28;20044;-44
2021/11/23 07:41:18;;;;;;;8.68;3.95;;;;;;;;;;5084216;28;20048;-52
2021/11/23 07:43:44;;;;;;;4.10;3.00;;;;;;;;;;5085781;28;20058;-51
2021/11/23 07:46:09;;;;;;;5.00;1.70;;;;;;;;;;5085617;28;20044;-50
2021/11/23 07:48:35;;;;;;;1.95;1.52;;;;;;;;;;5085129;28;21055;-51
2021/11/23 07:51:01;;;;;;;4.75;3.15;;;;;;;;;;5079105;28;20048;-47
2021/11/23 07:53:26;;;;;;;2.45;1.70;;;;;;;;;;5082785;28;20055;-51
2021/11/23 07:55:51;;;;;;;5.35;3.33;;;;;;;;;;5085725;28;20040;-49
2021/11/23 07:58:17;;;;;;;9.85;6.60;;;;;;;;;;5085632;28;20464;-46
2021/11/23 08:00:43;;;;;;;4.88;3.08;;;;;;;;;;5085791;28;20131;-46
2021/11/23 08:03:09;;;;;;;2.33;1.35;;;;;;;;;;5085273;28;20113;-50
2021/11/23 08:05:37;;;;;;;4.47;2.05;;;;;;;;;;5085547;28;20089;-49
2021/11/23 08:08:03;;;;;;;2.50;1.63;;;;;;;;;;5082449;28;20052;-51
2021/11/23 08:10:28;;;;;;;1.33;0.75;;;;;;;;;;5079499;28;20094;-50
2021/11/23 08:12:53;;;;;;;2.58;0.50;;;;;;;;;;5085059;28;20040;-47
2021/11/23 08:15:19;;;;;;;2.10;1.42;;;;;;;;;;5084621;28;20058;-50
2021/11/23 08:17:46;;;;;;;1.58;0.90;;;;;;;;;;5085056;28;20028;-50
2021/11/23 08:20:12;;;;;;;2.90;1.73;;;;;;;;;;5085205;28;20075;-49
2021/11/23 08:22:38;;;;;;;2.42;1.33;;;;;;;;;;5084290;28;20091;-50
2021/11/23 08:25:04;;;;;;;1.98;1.27;;;;;;;;;;5087971;28;20045;-46
2021/11/23 08:27:30;;;;;;;4.82;1.60;;;;;;;;;;5089333;28;20047;-46
2021/11/23 08:29:55;;;;;;;5.47;2.92;;;;;;;;;;5088225;28;20052;-47
2021/11/23 08:32:20;;;;;;;5.00;2.00;;;;;;;;;;5087776;28;20051;-46
2021/11/23 08:34:46;;;;;;;6.82;3.85;;;;;;;;;;5086340;28;20037;-48
2021/11/23 08:37:11;;;;;;;5.22;2.28;;;;;;;;;;5085086;28;20079;-47
2021/11/23 08:39:37;;;;;;;1.35;1.25;;;;;;;;;;5087817;28;20044;-48
2021/11/23 08:42:02;;;;;;;4.65;3.50;;;;;;;;;;5088763;28;20048;-50
2021/11/23 08:44:28;;;;;;;3.00;2.00;;;;;;;;;;5087988;28;20039;-49
2021/11/23 08:46:53;;;;;;;4.22;2.85;;;;;;;;;;5087030;28;20043;-51
2021/11/23 08:49:18;;;;;;;7.60;2.50;;;;;;;;;;5088634;28;20044;-48
2021/11/23 08:51:44;;;;;;;4.13;2.20;;;;;;;;;;5088427;28;20047;-48
2021/11/23 08:54:10;;;;;;;2.15;1.67;;;;;;;;;;5087798;28;20679;-46
2021/11/23 08:56:38;;;;;;;6.10;3.63;;;;;;;;;;5088004;28;20062;-48
2021/11/23 08:59:07;;;;;;;2.20;1.08;;;;;;;;;;5088391;28;20044;-46
2021/11/23 09:01:33;;;;;;;1.85;0.80;;;;;;;;;;5086180;28;20075;-48
2021/11/23 09:04:02;;;;;;;2.92;0.82;;;;;;;;;;5088733;28;20601;-48
2021/11/23 09:06:28;;;;;;;7.90;1.35;;;;;;;;;;5087448;28;20048;-47
2021/11/23 09:08:58;;;;;;;7.28;2.10;;;;;;;;;;5089193;28;20063;-47
2021/11/23 09:11:23;;;;;;;1.80;1.05;;;;;;;;;;5084734;28;20044;-45
2021/11/23 09:13:49;;;;;;;2.53;1.15;;;;;;;;;;5087671;28;20082;-48
2021/11/23 09:16:15;;;;;;;17.75;1.52;;;;;;;;;;5081186;28;20511;-49
2021/11/23 09:18:40;;;;;;;4.10;1.83;;;;;;;;;;5078700;28;20056;-51
2021/11/23 09:21:05;;;;;;;1.60;1.25;;;;;;;;;;5086432;28;20062;-43
2021/11/23 09:23:31;;;;;;;2.85;0.45;;;;;;;;;;5085604;28;20087;-47
2021/11/23 09:25:56;;;;;;;8.00;0.95;;;;;;;;;;5085580;28;20082;-47
2021/11/23 09:28:21;;;;;;;4.40;1.08;;;;;;;;;;5087752;28;20048;-49
2021/11/23 09:30:47;;;;;;;5.72;0.68;;;;;;;;;;5085083;28;20055;-46
2021/11/23 09:33:14;;;;;;;3.55;0.95;;;;;;;;;;5084982;28;20040;-48
2021/11/23 09:35:40;;;;;;;1.38;0.65;;;;;;;;;;5087561;28;20124;-48
2021/11/23 09:38:06;;;;;;;5.25;1.52;;;;;;;;;;5084949;28;20652;-48
2021/11/23 09:40:32;;;;;;;5.20;1.92;;;;;;;;;;5086992;28;20039;-46
2021/11/23 09:42:57;;;;;;;1.42;0.90;;;;;;;;;;5087605;28;20036;-50
2021/11/23 09:45:23;;;;;;;2.50;1.10;;;;;;;;;;5087505;28;20048;-48
2021/11/23 09:47:48;;;;;;;9.05;1.25;;;;;;;;;;5087586;28;20086;-52
2021/11/23 09:50:14;;;;;;;8.63;6.30;;;;;;;;;;5087876;28;20040;-48
2021/11/23 09:52:40;;;;;;;14.32;8.23;;;;;;;;;;5087934;28;20506;-49
2021/11/23 09:55:07;;;;;;;7.60;5.55;;;;;;;;;;5086669;28;20098;-50
2021/11/23 09:57:32;;;;;;;5.47;4.70;;;;;;;;;;5087467;28;20092;-46
2021/11/23 09:59:57;;;;;;;9.60;7.38;;;;;;;;;;5087404;28;20044;-57
2021/11/23 10:02:25;;;;;;;7.78;3.10;;;;;;;;;;5086761;28;20139;-56
2021/11/23 10:04:58;;;;;;;2.30;1.70;;;;;;;;;;5086789;28;20040;-52
2021/11/23 10:07:32;;;;;;;2.95;1.88;;;;;;;;;;5085958;28;20096;-52
2021/11/23 10:10:08;;;;;;;3.15;1.90;;;;;;;;;;5075792;28;20487;-53
2021/11/23 10:12:33;;;;;;;5.75;5.15;;;;;;;;;;5085506;28;20091;-54
2021/11/23 10:15:17;;;;;;;4.40;1.55;;;;;;;;;;5087412;28;20082;-51
2021/11/23 10:17:44;;;;;;;1.27;0.95;;;;;;;;;;5083769;28;20062;-49
2021/11/23 10:20:24;;;;;;;1.45;1.05;;;;;;;;;;5082952;28;20089;-64
2021/11/23 10:22:50;;;;;;;7.00;1.17;;;;;;;;;;5085398;28;20050;-63
2021/11/23 10:25:15;;;;;;;1.88;1.45;;;;;;;;;;5087051;28;20139;-58
2021/11/23 10:27:41;;;;;;;5.43;3.80;;;;;;;;;;5083419;28;20040;-66
2021/11/23 10:30:08;;;;;;;1.40;0.88;;;;;;;;;;5085397;28;20040;-60
2021/11/23 10:32:59;;;;;;;3.65;1.50;;;;;;;;;;5086545;28;20042;-58
2021/11/23 10:35:26;;;;;;;3.55;2.10;;;;;;;;;;5080993;28;20044;-57
2021/11/23 10:37:52;;;;;;;2.65;1.83;;;;;;;;;;5085482;28;20481;-57
2021/11/23 10:40:17;;;;;;;4.28;2.30;;;;;;;;;;5085452;28;20082;-57
2021/11/23 10:42:45;;;;;;;6.53;1.55;;;;;;;;;;5083917;28;20511;-56
2021/11/23 10:45:11;;;;;;;3.47;1.83;;;;;;;;;;5075241;28;20086;-56
2021/11/23 10:47:37;;;;;;;1.70;0.77;;;;;;;;;;5078934;28;20047;-58
2021/11/23 10:50:05;;;;;;;3.72;1.30;;;;;;;;;;5079019;28;20048;-57
2021/11/23 10:52:41;;;;;;;7.55;1.77;;;;;;;;;;5080921;28;20139;-54
2021/11/23 10:55:11;;;;;;;4.88;2.35;;;;;;;;;;5081918;28;20130;-58
2021/11/23 10:57:40;;;;;;;2.00;1.58;;;;;;;;;;5070577;28;20494;-57
2021/11/23 11:00:07;;;;;;;2.97;1.98;;;;;;;;;;5085339;28;20094;-57
2021/11/23 11:02:33;;;;;;;24.48;6.57;;;;;;;;;;5084822;28;20050;-59
2021/11/23 11:04:58;;;;;;;4.57;1.85;;;;;;;;;;5085475;28;20135;-58
2021/11/23 11:07:25;;;;;;;3.88;1.23;;;;;;;;;;5086502;28;20052;-58
2021/11/23 11:09:51;;;;;;;3.60;1.45;;;;;;;;;;5083415;28;20040;-58
2021/11/23 11:12:17;;;;;;;4.93;1.63;;;;;;;;;;5081816;28;20416;-57
2021/11/23 11:14:45;;;;;;;4.70;2.22;;;;;;;;;;5082418;28;20552;-58
2021/11/23 11:17:11;;;;;;;2.55;1.20;;;;;;;;;;5081620;28;20047;-57
2021/11/23 11:19:46;;;;;;;1.50;0.30;;;;;;;;;;5081566;28;20039;-58
2021/11/23 11:22:12;;;;;;;3.28;1.00;;;;;;;;;;5077686;28;20042;-57
2021/11/23 11:24:47;;;;;;;2.47;1.02;;;;;;;;;;5078523;28;20143;-57
2021/11/23 11:27:35;;;;;;;1.05;0.57;;;;;;;;;;5080141;28;20131;-56
2021/11/23 11:30:19;;;;;;;4.50;1.38;;;;;;;;;;5080517;28;20048;-57
2021/11/23 11:32:49;;;;;;;3.67;0.73;;;;;;;;;;5078730;28;20861;-57
2021/11/23 11:35:24;;;;;;;2.60;0.70;;;;;;;;;;5080296;28;20101;-56
2021/11/23 11:37:51;;;;;;;2.50;1.40;;;;;;;;;;5082484;28;20042;-55
2021/11/23 11:40:20;;;;;;;2.97;1.85;;;;;;;;;;5081847;28;20044;-58
2021/11/23 11:42:47;;;;;;;2.08;1.23;;;;;;;;;;5079374;28;20036;-56
2021/11/23 11:45:13;;;;;;;5.18;1.90;;;;;;;;;;5082016;28;20121;-58
2021/11/23 11:47:43;;;;;;;15.55;7.85;;;;;;;;;;5073931;28;20048;-59
2021/11/23 11:50:15;;;;;;;4.18;2.58;;;;;;;;;;5080664;28;20077;-58
2021/11/23 11:52:57;;;;;;;6.85;4.10;;;;;;;;;;5078749;28;20052;-57
2021/11/23 11:55:24;;;;;;;2.22;1.33;;;;;;;;;;5078972;28;20573;-56
2021/11/23 11:57:50;;;;;;;4.57;1.65;;;;;;;;;;5081420;28;20113;-58
2021/11/23 12:02:54;;;;;;;4.65;2.83;;;;;;;;;;5085235;28;20090;-57
2021/11/23 12:05:20;;;;;;;3.88;1.75;;;;;;;;;;5085688;28;20598;-54
2021/11/23 12:07:47;;;;;;;1.75;1.10;;;;;;;;;;5084205;28;20048;-58
2021/11/23 12:10:15;;;;;;;8.75;2.97;;;;;;;;;;5088703;28;20040;-57
2021/11/23 12:12:49;;;;;;;3.05;2.08;;;;;;;;;;5088281;28;20148;-56
2021/11/23 12:15:20;;;;;;;12.25;11.02;;;;;;;;;;5089362;28;20131;-57
2021/11/23 12:17:49;;;;;;;;;;;;;;;;;;5089285;28;20132;-58
2021/11/23 12:20:21;;;;;;;2.58;1.75;;;;;;;;;;5089095;28;20206;-58
2021/11/23 12:22:48;;;;;;;4.78;2.83;;;;;;;;;;5089513;28;20044;-57
2021/11/23 12:25:21;;;;;;;3.58;1.42;;;;;;;;;;5090029;28;20051;-58
2021/11/23 12:27:47;;;;;;;1.52;1.08;;;;;;;;;;5089188;28;20066;-57
2021/11/23 12:30:16;;;;;;;4.55;2.40;;;;;;;;;;5087308;28;20044;-57
2021/11/23 12:32:45;;;;;;;7.90;1.30;;;;;;;;;;5089025;28;20050;-55
2021/11/23 12:35:13;;;;;;;9.77;6.38;;;;;;;;;;5087262;28;20048;-56
2021/11/23 12:37:40;;;;;;;7.35;4.03;;;;;;;;;;5088712;28;20059;-56
2021/11/23 12:40:14;;;;;;;4.78;1.85;;;;;;;;;;5089035;28;20032;-57
2021/11/23 12:42:41;;;;;;;3.75;2.75;;;;;;;;;;5087459;28;20063;-58
2021/11/23 12:45:06;;;;;;;4.15;3.60;;;;;;;;;;5087062;28;20574;-57
2021/11/23 12:47:31;;;;;;;1.75;1.02;;;;;;;;;;5088755;28;20127;-58
2021/11/23 12:49:59;;;;;;;8.30;5.97;;;;;;;;;;5088851;28;20048;-58
2021/11/23 12:52:30;;;;;;;5.53;4.40;;;;;;;;;;5084643;28;20044;-56
2021/11/23 12:54:56;;;;;;;3.80;2.58;;;;;;;;;;5086590;28;20070;-56
2021/11/23 12:57:22;;;;;;;4.13;2.60;;;;;;;;;;5088798;28;20036;-58
2021/11/23 12:59:49;;;;;;;4.40;3.60;;;;;;;;;;5088784;28;20044;-56
2021/11/23 13:02:23;;;;;;;7.80;6.32;;;;;;;;;;5088310;28;20070;-57
2021/11/23 13:04:49;;;;;;;8.55;3.88;;;;;;;;;;5088128;28;20457;-56
2021/11/23 13:07:14;;;;;;;12.70;9.48;;;;;;;;;;5088307;28;20568;-55
2021/11/23 13:09:45;;;;;;;2.92;2.08;;;;;;;;;;5086998;28;20062;-55
2021/11/23 13:12:11;;;;;;;2.50;1.58;;;;;;;;;;5088067;28;20082;-53
2021/11/23 13:14:49;;;;;;;10.80;4.53;;;;;;;;;;5087858;28;20131;-57
2021/11/23 13:17:14;;;;;;;6.55;1.55;;;;;;;;;;5085317;28;20044;-57
2021/11/23 13:19:52;;;;;;;5.95;4.07;;;;;;;;;;5088117;28;20040;-57
2021/11/23 13:22:18;;;;;;;7.07;3.90;;;;;;;;;;5088131;28;20047;-50
2021/11/23 13:24:43;;;;;;;4.88;3.80;;;;;;;;;;5088033;28;20056;-53
2021/11/23 13:27:08;;;;;;;8.05;4.20;;;;;;;;;;5088207;28;20558;-56
2021/11/23 13:29:34;;;;;;;2.53;1.50;;;;;;;;;;5084484;28;20040;-56
2021/11/23 13:31:59;;;;;;;2.75;2.05;;;;;;;;;;5081147;28;20052;-51
2021/11/23 13:34:24;;;;;;;8.98;6.35;;;;;;;;;;5084973;28;20032;-54
2021/11/23 13:36:53;;;;;;;5.55;2.25;;;;;;;;;;5082918;28;20105;-47
2021/11/23 13:39:22;;;;;;;6.20;3.70;;;;;;;;;;5088425;28;20036;-54
2021/11/23 13:41:49;;;;;;;7.93;4.97;;;;;;;;;;5085313;28;20056;-52
2021/11/23 13:44:20;;;;;;;3.78;2.15;;;;;;;;;;5086722;28;20089;-60
2021/11/23 13:46:59;;;;;;;5.28;3.05;;;;;;;;;;5087001;28;20612;-65
2021/11/23 13:49:24;;;;;;;9.38;6.68;;;;;;;;;;5084532;28;20806;-60
2021/11/23 13:52:22;;;;;;;5.63;2.22;;;;;;;;;;5085976;28;20135;-61
2021/11/23 13:54:53;;;;;;;12.45;2.80;;;;;;;;;;5050044;28;20402;-56
2021/11/23 13:57:21;;;;;;;5.30;2.83;;;;;;;;;;5087360;28;20796;-60
2021/11/23 13:59:53;;;;;;;6.93;2.33;;;;;;;;;;5082875;28;20517;-60
2021/11/23 14:02:19;;;;;;;12.38;8.07;;;;;;;;;;5084416;28;20533;-60
2021/11/23 14:04:45;;;;;;;17.13;13.05;;;;;;;;;;5086532;28;20081;-59
2021/11/23 14:07:13;;;;;;;4.97;3.30;;;;;;;;;;5086602;28;20040;-60
2021/11/23 14:09:56;;;;;;;10.05;8.85;;;;;;;;;;5086415;28;20048;-60
2021/11/23 14:12:23;;;;;;;15.85;14.38;;;;;;;;;;5086599;28;20043;-59
2021/11/23 14:14:59;;;;;;;1.48;0.90;;;;;;;;;;5086753;28;20062;-60
2021/11/23 14:17:44;;;;;;;3.65;1.52;;;;;;;;;;5086290;28;20474;-56
2021/11/23 14:20:09;;;;;;;9.55;5.40;;;;;;;;;;5086775;28;20119;-57
2021/11/23 14:22:39;;;;;;;8.50;7.45;;;;;;;;;;5085841;28;20131;-57
2021/11/23 14:25:15;;;;;;;1.30;0.75;;;;;;;;;;5086742;28;20052;-57
2021/11/23 14:27:50;;;;;;;3.35;1.73;;;;;;;;;;5085394;28;20055;-57
2021/11/23 14:30:16;;;;;;;5.55;3.33;;;;;;;;;;5085530;28;20079;-58
2021/11/23 14:32:41;;;;;;;4.53;3.05;;;;;;;;;;5086620;28;20071;-57
2021/11/23 14:35:06;;;;;;;1.75;1.10;;;;;;;;;;5081830;28;20088;-57
2021/11/23 14:37:32;;;;;;;8.70;1.38;;;;;;;;;;5086019;28;20039;-57
2021/11/23 14:39:57;;;;;;;8.20;5.75;;;;;;;;;;5085399;28;20040;-60